METAR Analyzer

一覧表示

Hello, Guest. (Login)

RJFF/FUK  -  福岡

観測日時
2021-05-15 17:30 (UTC) (32分前)
気温
24
露点
22
湿数
2
相対湿度
88.6%
QNH
1007.5hPa
推定現地気圧
1006.4hPa
推定海面気圧
1007.4hPa
体感温度
17
(無風時)
24.6
HI
24.8
気温前日比
±0
体感温度前日比
-0.3
HI前日比
+0.3
水平視程
>10000m
鉛直視程
データなし
雲底高度
12000ft AGL
V/I
VMC (VFR)
RVR
No RVR data
卓越風
15kt from 150°
ガスト
No gust
降水
報告なし
その他の天気
報告なし
少しの雲 @ 2800ft AGL / 散在する雲 @ 10000ft AGL / 隙間のある雲 @ 12000ft AGL

RJFF 151730Z AUTO 15015KT 9999 FEW028 SCT100 BKN120 24/22 Q1007 NOSIG RMK A2975

RJFR/KKJ  -  北九州

観測日時
2021-05-15 17:00 (UTC) (62分前)
気温
19
露点
18
湿数
1
相対湿度
93.9%
QNH
1008hPa
推定現地気圧
1007.3hPa
推定海面気圧
1008.0hPa
体感温度
11.3
(無風時)
20.5
HI
19.4
気温前日比
±0
体感温度前日比
-0.8
HI前日比
±0
水平視程
>10000m
鉛直視程
データなし
雲底高度
3000ft AGL
V/I
VMC (VFR)
RVR
No RVR data
卓越風
9kt from 40°
ガスト
No gust
降水
報告なし
その他の天気
報告なし
少しの雲 @ 300ft AGL / 隙間のある雲 @ 3000ft AGL / 隙間のある雲 @ 7000ft AGL

RJFR 151700Z 04009KT 9999 FEW003 BKN030 BKN070 19/18 Q1008

RJFA  -  芦屋基地

観測日時
2021-05-15 17:00 (UTC) (62分前)
気温
23
露点
20
湿数
3
相対湿度
83.2%
QNH
1007.8hPa
推定現地気圧
1004.2hPa
推定海面気圧
1007.7hPa
体感温度
16.9
(無風時)
23.5
HI
23.5
気温前日比
+3
体感温度前日比
+2.6
HI前日比
+3.1
水平視程
>10000m
鉛直視程
データなし
雲底高度
10000ft AGL
V/I
VMC (VFR)
RVR
No RVR data
卓越風
8kt from 150°
ガスト
No gust
降水
報告なし
その他の天気
報告なし
少しの(1/8) 積雲 @ 3000ft AGL / 散在する(4/8) 層積雲 @ 5000ft AGL / 隙間のある(7/8) 高積雲 @ 10000ft AGL

RJFA 151700Z 15008KT 9999 FEW030 SCT050 BKN100 23/20 Q1007 RMK 1CU030 4SC050 7AC100 A2976

RJFZ  -  築城基地

観測日時
2021-05-15 17:43 (UTC) (19分前)
気温
20
露点
20
湿数
0
相対湿度
100%
QNH
1008.5hPa
推定現地気圧
1006.5hPa
推定海面気圧
1008.5hPa
体感温度
14.5
(無風時)
21.7
HI
20.7
気温前日比
データなし
体感温度前日比
データなし
HI前日比
データなし
水平視程
>10000m
鉛直視程
データなし
雲底高度
400ft AGL
V/I
SVMC (SVFR)
RVR
No RVR data
卓越風
5kt from 330°
ガスト
No gust
降水
報告なし
その他の天気
報告なし
散在する(3/8) 層雲 @ 200ft AGL / 隙間のある(6/8) 層雲 @ 400ft AGL / 隙間のある(7/8) 積雲 @ 4000ft AGL

RJFZ 151743Z 33005KT 9999 SCT002 BKN004 BKN040 20/20 Q1008 RMK 3ST002 6ST004 7CU040 A2978

RJFS/HSG  -  佐賀